Airfield :







YOU CAN JOIN US ON...

 
LOGIN :

Register | Disclaimer

   EN    FR    IT 

 









Legend :    VFR   Marginal VFR   IFR   Intensive IFR   Very Intensive IFR
Visi :
Ceiling :
>= 8 km
>= 3000ft
5 to 8 km
1000 to 3000 ft
1500m to 5 km
500 to 1000 ft
800 to 1500m
200 to 500 ft
< 800m
< 200 ft
Symbols :   Thunderstorms  Fog  Heavy snow  Heavy precipitations  Wind > 20 kt






- Airport Elevation : 234 ft
- IATA code : PBG


KPBG - Plattsburgh International

CURRENT METAR :
  • 230153Z AUTO 34005KT 10SM BKN070 OVC080 24/18 A2998 RMK AO2 SLP153 T02390178

EXPIRED METARs :
  • 230053Z AUTO 01005KT 10SM BKN080 24/17 A2998 RMK AO2 LTG DSNT SW SLP151 T02440172
  • 222353Z AUTO 02005KT 10SM FEW075 SCT100 25/18 A2997 RMK AO2 SLP148 T02500178 10278 20250 55003
  • 222253Z AUTO 07004KT 10SM FEW065 SCT085 26/17 A2996 RMK AO2 SLP146 T02610172
  • 222153Z AUTO VRB05KT 10SM SCT080 27/16 A2997 RMK AO2 SLP149 T02720156

TAF KPBG
Valid from the 23 at 00:00 until the 24 at 00:00 UTC


222340Z 2300/2324 07004KT P6SM SCT070
FM230700 00000KT 5SM -SHRA BR OVC050
FM231500 13006KT P6SM VCSH SCT025 BKN060
FM231900 16010KT P6SM VCSH SCT025
KZBW FIR / North America



MET'MAP, your aeronautical weather chart ! - Copyright ORBIFLY December 2007 - Disclaimer

ORBIFLY MET'MAP TEAM :

Programming & Development : Alexandra Zaïnal
Original concept : Baudouin d'Aumeries
Technical & hardware support : Manuel Goepfert
Assistance : Marc-Olivier Méhu




SOURCES & CREDITS :

   NOAA